Time;durP1;ratioP1;P1;durP2;ratioP2;P2;SDS_P1;SDS_P2;PMS_P1;PMS_P2;Temp;Humidity;BMP_temperature;BMP_pressure;BME280_temperature;BME280_humidity;BME280_pressure;Samples;Min_cycle;Max_cycle;Signal;HPM_P1;HPM_P2
2021/04/09 00:02:15;;;;;;;19.10;10.75;;;;;;;3.08;100.00;101098.66;5044241;28;20107;-64
2021/04/09 00:04:42;;;;;;;25.38;10.43;;;;;;;3.14;100.00;101102.66;5043482;28;20041;-64
2021/04/09 00:07:09;;;;;;;23.80;11.68;;;;;;;3.32;100.00;101098.72;5048657;28;20045;-64
2021/04/09 00:09:36;;;;;;;18.95;10.52;;;;;;;3.33;100.00;101099.56;5042405;28;20041;-64
2021/04/09 00:12:04;;;;;;;25.52;12.73;;;;;;;3.31;100.00;101099.66;5042353;28;20044;-64
2021/04/09 00:14:31;;;;;;;19.63;9.77;;;;;;;3.32;100.00;101101.38;5046058;28;20049;-64
2021/04/09 00:16:59;;;;;;;22.25;10.70;;;;;;;3.26;100.00;101092.09;5045093;28;20115;-64
2021/04/09 00:19:27;;;;;;;21.40;10.45;;;;;;;3.21;100.00;101091.56;5041182;28;20326;-64
2021/04/09 00:21:54;;;;;;;22.00;9.95;;;;;;;3.26;100.00;101091.22;5041022;28;20356;-64
2021/04/09 00:24:23;;;;;;;19.23;10.50;;;;;;;3.50;100.00;101082.50;5047028;28;20313;-64
2021/04/09 00:26:51;;;;;;;17.67;9.88;;;;;;;3.49;100.00;101080.81;5044660;28;20671;-64
2021/04/09 00:29:19;;;;;;;22.25;10.50;;;;;;;3.24;100.00;101087.84;5046442;28;20056;-64
2021/04/09 00:31:46;;;;;;;18.50;9.32;;;;;;;3.39;100.00;101070.94;5040567;28;20045;-64
2021/04/09 00:34:13;;;;;;;21.50;10.07;;;;;;;3.30;100.00;101082.13;5040737;28;20073;-64
2021/04/09 00:36:40;;;;;;;23.88;9.20;;;;;;;3.11;100.00;101072.06;5047635;28;20052;-64
2021/04/09 00:39:09;;;;;;;20.52;10.50;;;;;;;3.05;100.00;101070.69;5045695;28;20425;-64
2021/04/09 00:41:37;;;;;;;18.67;10.43;;;;;;;2.77;100.00;101069.13;5043901;28;20037;-65
2021/04/09 00:44:06;;;;;;;19.00;9.88;;;;;;;3.01;100.00;101065.75;5044065;28;20052;-64
2021/04/09 00:46:34;;;;;;;16.48;10.27;;;;;;;2.84;100.00;101064.28;5040933;28;20057;-65
2021/04/09 00:49:02;;;;;;;20.30;10.05;;;;;;;2.94;100.00;101060.03;5045048;28;20045;-64
2021/04/09 00:51:29;;;;;;;21.58;10.13;;;;;;;3.07;100.00;101055.56;5044030;28;20431;-64
2021/04/09 00:53:57;;;;;;;17.58;9.48;;;;;;;3.32;100.00;101050.34;5045735;28;20045;-64
2021/04/09 00:56:26;;;;;;;18.98;9.40;;;;;;;3.15;100.00;101041.84;5045760;28;20037;-64
2021/04/09 00:58:55;;;;;;;18.90;10.25;;;;;;;3.22;100.00;101043.09;5045206;28;20452;-64
2021/04/09 01:01:22;;;;;;;14.40;8.85;;;;;;;3.20;100.00;101044.16;5044285;28;20037;-64
2021/04/09 01:03:51;;;;;;;16.08;9.18;;;;;;;3.26;100.00;101041.94;5042248;28;20064;-65
2021/04/09 01:06:18;;;;;;;16.45;8.75;;;;;;;3.22;100.00;101042.25;5043432;28;20037;-64
2021/04/09 01:08:46;;;;;;;18.20;8.77;;;;;;;3.20;100.00;101037.06;5044284;28;20425;-64
2021/04/09 01:11:13;;;;;;;16.35;9.18;;;;;;;3.52;100.00;101035.72;5044263;28;20041;-64
2021/04/09 01:13:40;;;;;;;15.57;8.55;;;;;;;3.38;100.00;101032.28;5044804;28;20037;-64
2021/04/09 01:16:12;;;;;;;15.13;8.68;;;;;;;3.27;100.00;101029.56;5040352;28;20336;-64
2021/04/09 01:18:46;;;;;;;15.13;9.02;;;;;;;3.26;100.00;101017.31;5042730;28;20041;-64
2021/04/09 01:21:22;;;;;;;14.85;8.00;;;;;;;3.32;100.00;101019.53;5044803;28;20052;-64
2021/04/09 01:23:58;;;;;;;14.20;9.10;;;;;;;3.43;100.00;101013.44;5043904;28;20053;-64
2021/04/09 01:26:59;;;;;;;23.02;8.85;;;;;;;3.65;100.00;101007.44;5042300;28;20040;-64
2021/04/09 01:30:04;;;;;;;13.02;7.75;;;;;;;3.44;100.00;101010.72;5044459;28;20060;-64
2021/04/09 01:32:32;;;;;;;13.50;7.50;;;;;;;3.53;100.00;101016.25;5039282;28;20132;-65
2021/04/09 01:35:05;;;;;;;15.98;8.02;;;;;;;3.43;100.00;101019.59;5042577;28;20076;-64
2021/04/09 01:37:37;;;;;;;14.20;7.32;;;;;;;3.25;100.00;101013.84;5041661;28;20050;-64
2021/04/09 01:40:07;;;;;;;16.63;8.15;;;;;;;3.32;100.00;101011.59;5041426;28;20044;-64
2021/04/09 01:42:35;;;;;;;17.23;8.45;;;;;;;3.12;100.00;101007.78;5042230;28;20060;-64
2021/04/09 01:45:04;;;;;;;14.77;7.75;;;;;;;2.91;100.00;101005.69;5043257;28;20051;-64
2021/04/09 01:47:33;;;;;;;15.95;9.15;;;;;;;2.91;100.00;101000.41;5038445;28;20094;-64
2021/04/09 01:50:03;;;;;;;18.42;8.55;;;;;;;3.18;100.00;101009.13;5039774;28;20061;-65
2021/04/09 01:52:32;;;;;;;15.95;7.95;;;;;;;3.08;100.00;100999.22;5044406;28;20046;-64
2021/04/09 01:55:01;;;;;;;15.90;8.38;;;;;;;3.18;100.00;100998.56;5040820;28;20119;-65
2021/04/09 01:57:28;;;;;;;14.10;8.25;;;;;;;3.24;100.00;101003.41;5042969;28;20426;-64
2021/04/09 01:59:57;;;;;;;17.48;8.35;;;;;;;3.07;100.00;101000.16;5046254;28;20052;-64
2021/04/09 02:02:25;;;;;;;16.02;8.13;;;;;;;2.95;100.00;100987.88;5043904;28;20074;-65
2021/04/09 02:04:53;;;;;;;19.20;8.88;;;;;;;2.92;100.00;100988.91;5040458;28;20141;-64
2021/04/09 02:07:20;;;;;;;18.33;9.10;;;;;;;2.84;100.00;100987.78;5041555;28;20049;-64
2021/04/09 02:09:48;;;;;;;15.32;9.02;;;;;;;2.84;100.00;100982.50;5040584;28;20934;-64
2021/04/09 02:12:16;;;;;;;14.90;8.30;;;;;;;2.67;100.00;100983.69;5043306;28;20082;-64
2021/04/09 02:14:44;;;;;;;17.58;8.27;;;;;;;2.64;100.00;100981.28;5042725;28;20051;-65
2021/04/09 02:17:11;;;;;;;19.08;9.27;;;;;;;2.59;100.00;100976.31;5041453;28;20045;-64
2021/04/09 02:19:39;;;;;;;17.58;9.15;;;;;;;2.59;100.00;100973.66;5042528;28;20064;-64
2021/04/09 02:22:08;;;;;;;16.83;9.02;;;;;;;2.51;100.00;100973.34;5040171;28;20037;-64
2021/04/09 02:24:35;;;;;;;18.70;8.70;;;;;;;2.69;100.00;100965.97;5041006;28;20044;-65
2021/04/09 02:27:07;;;;;;;18.60;9.43;;;;;;;2.78;100.00;100967.09;5040658;28;20146;-64
2021/04/09 02:29:34;;;;;;;22.08;9.82;;;;;;;2.69;100.00;100964.16;5043671;28;20111;-65
2021/04/09 02:32:01;;;;;;;14.23;8.90;;;;;;;2.90;100.00;100953.03;5040466;28;20037;-64
2021/04/09 02:34:28;;;;;;;21.83;9.07;;;;;;;3.12;100.00;100964.69;5043599;28;20052;-64
2021/04/09 02:36:56;;;;;;;23.40;10.55;;;;;;;3.13;100.00;100950.53;5039939;28;20535;-64
2021/04/09 02:39:27;;;;;;;18.02;9.80;;;;;;;3.22;100.00;100956.00;5043942;28;20049;-64
2021/04/09 02:41:56;;;;;;;18.27;8.70;;;;;;;3.38;100.00;100954.88;5042858;28;20052;-64
2021/04/09 02:44:23;;;;;;;17.77;8.27;;;;;;;3.27;100.00;100951.22;5041088;28;20053;-64
2021/04/09 02:46:53;;;;;;;24.77;8.90;;;;;;;3.15;100.00;100959.19;5038045;28;20046;-64
2021/04/09 02:49:27;;;;;;;13.80;8.13;;;;;;;3.29;100.00;100948.47;5042997;28;20398;-64
2021/04/09 02:51:55;;;;;;;19.92;9.35;;;;;;;3.33;100.00;100955.22;5039927;28;20052;-64
2021/04/09 02:54:23;;;;;;;18.73;10.23;;;;;;;3.19;100.00;100952.72;5041657;28;20048;-64
2021/04/09 02:56:52;;;;;;;19.27;9.25;;;;;;;3.07;100.00;100951.81;5041416;28;20037;-65
2021/04/09 02:59:20;;;;;;;16.10;9.07;;;;;;;3.31;100.00;100951.84;5045242;28;20045;-64
2021/04/09 03:01:47;;;;;;;23.02;9.73;;;;;;;3.14;100.00;100939.88;5038423;28;20041;-64
2021/04/09 03:04:15;;;;;;;19.75;10.30;;;;;;;2.90;100.00;100947.75;5040384;28;20095;-65
2021/04/09 03:06:43;;;;;;;19.38;10.20;;;;;;;2.98;100.00;100934.88;5039902;28;20037;-64
2021/04/09 03:09:10;;;;;;;21.13;10.60;;;;;;;2.71;100.00;100930.63;5036260;28;20053;-64
2021/04/09 03:11:39;;;;;;;21.50;10.43;;;;;;;2.54;100.00;100933.63;5038115;28;20042;-64
2021/04/09 03:14:06;;;;;;;24.60;10.73;;;;;;;2.55;100.00;100927.38;5044533;28;20050;-65
2021/04/09 03:16:37;;;;;;;22.73;11.68;;;;;;;2.51;100.00;100924.13;5034953;28;20122;-64
2021/04/09 03:19:04;;;;;;;21.15;9.98;;;;;;;2.57;100.00;100930.75;5046345;28;20110;-64
2021/04/09 03:21:31;;;;;;;20.38;10.73;;;;;;;2.53;100.00;100916.09;5043143;28;20040;-64
2021/04/09 03:23:58;;;;;;;22.13;10.98;;;;;;;2.61;100.00;100921.69;5042794;28;20037;-64
2021/04/09 03:26:25;;;;;;;21.80;9.93;;;;;;;2.59;100.00;100920.94;5039699;28;20041;-64
2021/04/09 03:28:53;;;;;;;21.67;12.10;;;;;;;2.55;100.00;100922.09;5043042;28;20067;-64
2021/04/09 03:31:20;;;;;;;21.35;11.95;;;;;;;2.43;100.00;100912.44;5040786;28;20091;-64
2021/04/09 03:33:47;;;;;;;25.58;11.10;;;;;;;2.30;100.00;100907.19;5040242;28;20043;-64
2021/04/09 03:36:14;;;;;;;23.73;10.05;;;;;;;2.21;100.00;100916.56;5040832;28;20065;-64
2021/04/09 03:38:41;;;;;;;20.98;11.38;;;;;;;2.22;100.00;100905.91;5042706;28;20057;-64
2021/04/09 03:41:08;;;;;;;17.60;10.32;;;;;;;2.09;100.00;100905.09;5044639;28;20056;-64
2021/04/09 03:43:35;;;;;;;20.52;11.05;;;;;;;2.02;100.00;100898.56;5037577;28;20045;-65
2021/04/09 03:46:02;;;;;;;24.00;11.30;;;;;;;2.09;100.00;100902.44;5039637;28;20360;-64
2021/04/09 03:48:29;;;;;;;38.10;17.52;;;;;;;2.05;100.00;100908.88;5044743;28;20050;-64
2021/04/09 03:50:56;;;;;;;47.25;23.77;;;;;;;1.78;100.00;100904.53;5038382;28;20056;-64
2021/04/09 03:53:23;;;;;;;26.33;13.57;;;;;;;1.69;100.00;100897.28;5040942;28;20052;-64
2021/04/09 03:55:50;;;;;;;32.25;14.73;;;;;;;1.58;100.00;100900.63;5040766;28;20052;-64
2021/04/09 03:58:17;;;;;;;26.33;12.02;;;;;;;1.43;100.00;100899.00;5047622;28;20037;-64
2021/04/09 04:00:44;;;;;;;21.38;11.75;;;;;;;1.58;100.00;100903.25;5045460;28;20045;-64
2021/04/09 04:03:12;;;;;;;21.88;11.05;;;;;;;1.49;100.00;100906.50;5045477;28;20041;-64
2021/04/09 04:05:39;;;;;;;22.48;11.55;;;;;;;1.62;100.00;100906.53;5044603;28;20333;-65
2021/04/09 04:08:06;;;;;;;22.00;10.57;;;;;;;1.71;100.00;100901.47;5047661;28;20068;-65
2021/04/09 04:10:33;;;;;;;22.80;11.18;;;;;;;1.86;100.00;100896.13;5044635;28;20044;-64
2021/04/09 04:13:00;;;;;;;18.88;9.43;;;;;;;2.08;100.00;100898.13;5050454;28;20056;-64
2021/04/09 04:15:27;;;;;;;18.70;9.85;;;;;;;2.22;100.00;100891.91;5044467;28;20421;-64
2021/04/09 04:17:54;;;;;;;17.58;9.82;;;;;;;2.26;100.00;100890.75;5041750;28;20053;-64
2021/04/09 04:20:21;;;;;;;19.35;10.05;;;;;;;2.30;100.00;100896.66;5045240;28;20052;-64
2021/04/09 04:22:49;;;;;;;16.67;8.82;;;;;;;2.37;100.00;100890.81;5047720;28;20043;-64
2021/04/09 04:25:16;;;;;;;21.27;10.05;;;;;;;2.30;100.00;100892.22;5043571;28;20144;-64
2021/04/09 04:27:43;;;;;;;16.92;9.55;;;;;;;2.53;100.00;100892.38;5042102;28;20485;-64
2021/04/09 04:30:11;;;;;;;17.90;8.55;;;;;;;2.33;100.00;100892.00;5045452;28;20049;-64
2021/04/09 04:32:38;;;;;;;17.40;9.40;;;;;;;2.38;100.00;100887.25;5043427;28;20048;-64
2021/04/09 04:35:07;;;;;;;16.08;9.73;;;;;;;2.49;100.00;100886.47;5048134;28;20059;-64
2021/04/09 04:37:35;;;;;;;14.23;8.82;;;;;;;2.61;100.00;100884.78;5043938;28;20049;-65
2021/04/09 04:40:02;;;;;;;16.38;9.43;;;;;;;2.56;100.00;100887.72;5043240;28;20054;-64
2021/04/09 04:42:29;;;;;;;25.23;10.95;;;;;;;2.34;100.00;100877.88;5048022;28;20041;-64
2021/04/09 04:44:56;;;;;;;21.45;10.38;;;;;;;2.12;100.00;100889.06;5045182;28;20376;-65
2021/04/09 04:47:22;;;;;;;16.80;10.32;;;;;;;1.95;100.00;100882.31;5044130;28;20409;-64
2021/04/09 04:49:49;;;;;;;21.33;10.40;;;;;;;1.85;100.00;100883.91;5047338;28;20344;-64
2021/04/09 04:52:16;;;;;;;19.67;10.10;;;;;;;1.74;100.00;100883.78;5044538;28;20353;-65
2021/04/09 04:54:44;;;;;;;20.20;9.75;;;;;;;1.92;100.00;100887.81;5046281;28;20353;-64
2021/04/09 04:57:11;;;;;;;20.50;10.35;;;;;;;2.29;100.00;100879.16;5044612;28;20053;-64
2021/04/09 04:59:38;;;;;;;22.85;10.57;;;;;;;2.71;100.00;100882.31;5042412;28;20045;-65
2021/04/09 05:02:05;;;;;;;25.77;10.48;;;;;;;2.87;100.00;100882.03;5040741;28;20334;-64
2021/04/09 05:04:32;;;;;;;19.40;10.68;;;;;;;2.87;100.00;100880.25;5045446;28;20053;-65
2021/04/09 05:07:00;;;;;;;17.63;9.85;;;;;;;3.07;100.00;100881.41;5044414;28;20045;-64
2021/04/09 05:09:27;;;;;;;21.13;10.00;;;;;;;3.15;100.00;100874.72;5044426;28;20053;-64
2021/04/09 05:11:54;;;;;;;20.80;9.95;;;;;;;3.22;100.00;100868.91;5047881;28;20044;-64
2021/04/09 05:14:21;;;;;;;19.88;10.30;;;;;;;3.17;100.00;100870.19;5044322;28;20352;-65
2021/04/09 05:16:48;;;;;;;16.48;8.80;;;;;;;3.21;100.00;100876.94;5042805;28;20052;-64
2021/04/09 05:19:16;;;;;;;22.05;10.30;;;;;;;3.13;100.00;100884.56;5047826;28;20490;-64
2021/04/09 05:21:43;;;;;;;23.30;10.93;;;;;;;3.26;100.00;100880.03;5043381;28;20414;-64
2021/04/09 05:24:10;;;;;;;26.23;12.98;;;;;;;3.23;100.00;100886.44;5038498;28;20057;-65
2021/04/09 05:26:37;;;;;;;21.52;11.43;;;;;;;2.53;100.00;100881.84;5046537;28;20040;-66
2021/04/09 05:29:05;;;;;;;19.83;10.77;;;;;;;2.16;100.00;100879.16;5041194;28;20053;-66
2021/04/09 05:31:33;;;;;;;20.20;12.00;;;;;;;2.33;100.00;100886.72;5046609;28;20048;-65
2021/04/09 05:34:00;;;;;;;22.17;11.57;;;;;;;2.20;100.00;100875.38;5044917;28;20441;-65
2021/04/09 05:36:27;;;;;;;20.67;10.85;;;;;;;2.21;100.00;100879.66;5043184;28;20483;-65
2021/04/09 05:38:54;;;;;;;20.10;10.93;;;;;;;2.38;100.00;100879.34;5042670;28;20054;-66
2021/04/09 05:41:20;;;;;;;23.50;12.00;;;;;;;2.51;100.00;100873.19;5044345;28;20049;-65
2021/04/09 05:43:47;;;;;;;26.50;13.50;;;;;;;2.72;100.00;100881.34;5049307;28;20446;-65
2021/04/09 05:46:15;;;;;;;19.65;12.50;;;;;;;2.98;100.00;100882.09;5040974;28;20037;-64
2021/04/09 05:48:42;;;;;;;25.45;12.40;;;;;;;3.21;100.00;100880.41;5041919;28;20164;-66
2021/04/09 05:51:09;;;;;;;23.65;12.48;;;;;;;3.29;100.00;100879.84;5043902;28;20128;-65
2021/04/09 05:53:36;;;;;;;22.10;12.20;;;;;;;3.48;100.00;100883.75;5041706;28;20041;-65
2021/04/09 05:56:03;;;;;;;24.58;12.55;;;;;;;3.67;100.00;100880.53;5041772;28;20080;-64
2021/04/09 05:58:30;;;;;;;25.83;12.15;;;;;;;3.64;100.00;100876.34;5045372;28;20049;-65
2021/04/09 06:00:57;;;;;;;22.13;12.07;;;;;;;3.78;100.00;100886.72;5043348;28;20041;-64
2021/04/09 06:03:25;;;;;;;20.02;11.85;;;;;;;3.94;100.00;100885.50;5043049;28;20055;-65
2021/04/09 06:05:52;;;;;;;22.17;11.63;;;;;;;4.02;100.00;100893.69;5043004;28;20376;-65
2021/04/09 06:08:19;;;;;;;21.00;11.55;;;;;;;4.24;100.00;100884.06;5046400;28;20088;-64
2021/04/09 06:10:46;;;;;;;21.83;11.07;;;;;;;4.28;100.00;100886.38;5041993;28;20048;-65
2021/04/09 06:13:13;;;;;;;18.75;10.82;;;;;;;4.34;100.00;100882.41;5044027;28;20053;-65
2021/04/09 06:15:40;;;;;;;21.38;13.07;;;;;;;4.52;100.00;100890.69;5043441;28;20041;-65
2021/04/09 06:18:08;;;;;;;18.20;10.80;;;;;;;4.52;100.00;100885.38;5046328;28;20047;-65
2021/04/09 06:20:35;;;;;;;23.33;10.88;;;;;;;4.63;100.00;100887.19;5045131;28;20049;-65
2021/04/09 06:23:02;;;;;;;22.27;11.88;;;;;;;4.74;100.00;100892.47;5045298;28;20043;-65
2021/04/09 06:25:30;;;;;;;22.50;12.60;;;;;;;4.78;100.00;100885.97;5040925;28;20053;-64
2021/04/09 06:27:57;;;;;;;22.40;11.82;;;;;;;4.88;100.00;100885.22;5043615;28;20044;-64
2021/04/09 06:30:24;;;;;;;23.38;13.02;;;;;;;4.96;100.00;100886.28;5042313;28;20048;-66
2021/04/09 06:32:51;;;;;;;19.33;10.82;;;;;;;5.22;100.00;100880.66;5042836;28;20968;-65
2021/04/09 06:35:18;;;;;;;18.35;11.07;;;;;;;5.55;100.00;100884.09;5045787;28;20083;-64
2021/04/09 06:37:46;;;;;;;19.38;11.68;;;;;;;5.66;100.00;100884.03;5047164;28;20057;-64
2021/04/09 06:40:14;;;;;;;23.27;12.73;;;;;;;5.60;100.00;100891.66;5040454;28;20060;-65
2021/04/09 06:42:41;;;;;;;20.92;13.00;;;;;;;5.55;100.00;100897.34;5045098;28;20083;-65
2021/04/09 06:45:09;;;;;;;20.65;12.35;;;;;;;5.60;100.00;100892.50;5045663;28;20049;-65
2021/04/09 06:47:36;;;;;;;24.02;11.55;;;;;;;5.80;100.00;100896.13;5038871;28;20041;-64
2021/04/09 06:50:04;;;;;;;21.23;12.38;;;;;;;6.08;100.00;100898.25;5040427;28;20045;-65
2021/04/09 06:52:31;;;;;;;20.92;12.65;;;;;;;5.96;100.00;100890.34;5043057;28;20048;-65
2021/04/09 06:55:00;;;;;;;24.88;12.88;;;;;;;6.11;100.00;100896.19;5042198;28;20095;-64
2021/04/09 06:57:28;;;;;;;19.58;11.88;;;;;;;5.91;100.00;100887.28;5042950;28;20586;-64
2021/04/09 06:59:57;;;;;;;19.33;12.20;;;;;;;6.12;100.00;100887.25;5042523;28;20045;-64
2021/04/09 07:02:25;;;;;;;21.20;12.52;;;;;;;6.26;100.00;100886.06;5043757;28;20052;-64
2021/04/09 07:04:51;;;;;;;24.63;12.38;;;;;;;5.92;100.00;100875.69;5044357;28;20111;-65
2021/04/09 07:07:19;;;;;;;25.48;12.23;;;;;;;6.09;100.00;100886.69;5041809;28;20328;-64
2021/04/09 07:09:46;;;;;;;18.67;12.35;;;;;;;6.35;100.00;100887.91;5049440;28;20045;-64
2021/04/09 07:12:24;;;;;;;23.55;11.85;;;;;;;6.29;100.00;100887.59;5047613;28;20037;-64
2021/04/09 07:14:53;;;;;;;22.00;11.52;;;;;;;6.62;100.00;100883.81;5043477;28;20127;-64
2021/04/09 07:17:27;;;;;;;22.50;11.23;;;;;;;6.50;100.00;100884.91;5041068;28;20049;-64
2021/04/09 07:20:13;;;;;;;20.35;10.75;;;;;;;6.54;100.00;100878.34;5041480;28;20076;-66
2021/04/09 07:22:41;;;;;;;22.13;11.45;;;;;;;6.46;100.00;100876.34;5042051;28;20045;-64
2021/04/09 07:25:11;;;;;;;20.23;11.40;;;;;;;6.83;100.00;100875.78;5041160;28;20053;-65
2021/04/09 07:27:40;;;;;;;19.92;11.43;;;;;;;6.54;100.00;100881.00;5041441;28;20033;-64
2021/04/09 07:30:10;;;;;;;22.60;13.00;;;;;;;7.00;100.00;100882.22;5037194;28;20045;-64
2021/04/09 07:32:38;;;;;;;21.25;12.30;;;;;;;6.77;100.00;100880.78;5043473;28;20045;-65
2021/04/09 07:35:10;;;;;;;21.90;13.30;;;;;;;6.57;100.00;100883.38;5041892;28;20056;-64
2021/04/09 07:37:54;;;;;;;18.67;10.45;;;;;;;7.54;100.00;100873.81;5039201;28;20556;-64
2021/04/09 07:40:24;;;;;;;21.23;11.63;;;;;;;7.72;100.00;100874.75;5050403;28;20083;-64
2021/04/09 07:42:52;;;;;;;19.13;11.43;;;;;;;7.67;100.00;100878.81;5045600;28;20056;-64
2021/04/09 07:45:21;;;;;;;22.00;12.48;;;;;;;7.76;100.00;100872.66;5045325;28;20045;-65
2021/04/09 07:48:02;;;;;;;19.25;11.35;;;;;;;7.59;100.00;100867.06;5046014;28;20049;-64
2021/04/09 07:50:39;;;;;;;17.13;11.07;;;;;;;7.90;100.00;100858.91;5045409;28;20052;-64
2021/04/09 07:53:07;;;;;;;19.05;11.38;;;;;;;8.02;100.00;100872.84;5044801;28;20097;-65
2021/04/09 07:55:34;;;;;;;19.42;10.30;;;;;;;8.16;100.00;100868.88;5045091;28;20045;-65
2021/04/09 07:58:19;;;;;;;17.75;11.15;;;;;;;8.04;100.00;100867.41;5043800;28;20041;-64
2021/04/09 08:00:47;;;;;;;20.88;10.43;;;;;;;8.31;100.00;100865.75;5043305;28;20053;-64
2021/04/09 08:03:34;;;;;;;18.45;10.18;;;;;;;8.47;100.00;100865.97;5049939;28;20037;-64
2021/04/09 08:06:09;;;;;;;18.10;10.88;;;;;;;7.95;100.00;100870.94;5040360;28;20520;-65
2021/04/09 08:08:38;;;;;;;17.08;10.32;;;;;;;8.32;100.00;100867.44;5046942;28;20041;-64
2021/04/09 08:11:21;;;;;;;17.20;9.57;;;;;;;8.49;100.00;100863.16;5048548;28;20324;-64
2021/04/09 08:14:06;;;;;;;17.52;10.13;;;;;;;8.53;100.00;100876.03;5045236;28;20091;-64
2021/04/09 08:16:35;;;;;;;17.13;9.93;;;;;;;8.59;100.00;100869.28;5046356;28;20041;-64
2021/04/09 08:19:05;;;;;;;16.35;9.85;;;;;;;8.57;100.00;100869.41;5050396;28;20037;-64
2021/04/09 08:21:33;;;;;;;15.38;9.68;;;;;;;8.67;100.00;100868.53;5045084;28;20061;-64
2021/04/09 08:24:00;;;;;;;19.40;9.27;;;;;;;8.56;100.00;100875.75;5043735;28;20052;-64
2021/04/09 08:26:28;;;;;;;16.05;9.70;;;;;;;9.00;100.00;100863.56;5048762;28;20424;-65
2021/04/09 08:28:55;;;;;;;18.98;11.30;;;;;;;8.70;100.00;100863.75;5047211;28;20436;-64
2021/04/09 08:31:23;;;;;;;15.18;10.20;;;;;;;8.98;100.00;100854.88;5044556;28;20052;-64
2021/04/09 08:33:50;;;;;;;28.02;10.00;;;;;;;9.15;100.00;100862.03;5045735;28;20054;-65
2021/04/09 08:36:19;;;;;;;18.52;9.63;;;;;;;9.18;100.00;100864.38;5041471;28;20120;-64
2021/04/09 08:38:46;;;;;;;16.42;9.82;;;;;;;9.25;100.00;100873.44;5037452;28;20053;-65
2021/04/09 08:41:14;;;;;;;14.73;8.45;;;;;;;8.56;100.00;100859.78;5019864;28;20414;-64
2021/04/09 08:43:41;;;;;;;11.35;7.30;;;;;;;9.08;100.00;100861.78;5039294;28;20049;-64
2021/04/09 08:46:08;;;;;;;14.65;7.00;;;;;;;9.07;100.00;100868.13;5044616;28;20033;-65
2021/04/09 08:48:38;;;;;;;18.85;7.57;;;;;;;9.84;100.00;100864.91;5044765;28;20049;-65
2021/04/09 08:51:06;;;;;;;11.20;7.25;;;;;;;9.58;100.00;100864.88;5047819;28;20108;-64
2021/04/09 08:53:34;;;;;;;14.10;7.75;;;;;;;8.92;100.00;100864.31;5043686;28;20044;-64
2021/04/09 08:56:03;;;;;;;18.42;7.70;;;;;;;9.13;100.00;100856.84;5043622;28;20903;-64
2021/04/09 08:58:43;;;;;;;12.77;7.28;;;;;;;9.63;100.00;100846.59;5045626;28;20432;-64
2021/04/09 09:01:12;;;;;;;18.55;9.32;;;;;;;9.88;100.00;100858.25;5046185;28;20052;-65
2021/04/09 09:03:40;;;;;;;12.35;7.38;;;;;;;10.90;100.00;100860.19;5049153;28;20045;-64
2021/04/09 09:06:08;;;;;;;9.88;5.85;;;;;;;11.46;100.00;100855.06;5041329;28;20080;-64
2021/04/09 09:08:58;;;;;;;10.50;6.80;;;;;;;10.94;100.00;100854.34;5044390;28;20049;-65
2021/04/09 09:11:48;;;;;;;13.65;7.70;;;;;;;10.90;100.00;100853.03;5046089;28;20041;-65
2021/04/09 09:14:49;;;;;;;12.55;7.20;;;;;;;11.40;100.00;100853.88;5045272;28;20045;-65
2021/04/09 09:17:40;;;;;;;12.95;6.78;;;;;;;10.36;100.00;100842.66;5006359;28;20338;-64
2021/04/09 09:20:18;;;;;;;15.90;7.88;;;;;;;11.09;100.00;100853.72;4998980;28;20060;-64
2021/04/09 09:22:50;;;;;;;12.25;7.50;;;;;;;10.48;100.00;100851.22;5031912;28;20065;-64
2021/04/09 09:25:31;;;;;;;11.88;6.90;;;;;;;11.39;100.00;100854.88;5042882;28;20429;-64
2021/04/09 09:27:58;;;;;;;11.63;6.80;;;;;;;10.56;100.00;100837.06;5041114;28;20099;-64
2021/04/09 09:30:36;;;;;;;14.88;8.05;;;;;;;10.98;100.00;100850.34;5043542;28;20060;-64
2021/04/09 09:33:27;;;;;;;10.40;7.45;;;;;;;11.66;100.00;100844.81;5045631;28;20087;-64
2021/04/09 09:36:05;;;;;;;12.25;7.22;;;;;;;11.03;100.00;100849.88;5043495;28;20097;-65
2021/04/09 09:38:54;;;;;;;16.60;8.23;;;;;;;9.97;100.00;100848.47;5047045;28;20041;-64
2021/04/09 09:41:44;;;;;;;14.32;6.60;;;;;;;10.96;100.00;100846.19;5041044;28;20124;-65
2021/04/09 09:44:29;;;;;;;16.88;7.22;;;;;;;11.27;100.00;100846.38;5043732;28;20038;-64
2021/04/09 09:46:58;;;;;;;12.63;8.73;;;;;;;11.10;100.00;100850.00;5039183;28;20056;-65
2021/04/09 09:49:26;;;;;;;15.88;7.63;;;;;;;10.89;100.00;100856.69;5041442;28;20044;-65
2021/04/09 09:51:55;;;;;;;15.80;8.02;;;;;;;10.74;100.00;100851.13;5044342;28;20041;-65
2021/04/09 09:54:23;;;;;;;10.63;7.22;;;;;;;10.55;100.00;100851.44;5042992;28;20064;-65
2021/04/09 09:56:50;;;;;;;14.93;7.60;;;;;;;10.68;100.00;100846.44;5043758;28;20085;-64
2021/04/09 09:59:19;;;;;;;12.02;8.23;;;;;;;10.38;100.00;100839.84;5044763;28;20543;-65
2021/04/09 10:01:50;;;;;;;10.43;7.20;;;;;;;11.30;100.00;100839.84;5044200;28;20056;-64
2021/04/09 10:04:17;;;;;;;11.32;6.85;;;;;;;11.24;100.00;100835.16;5044674;28;20340;-65
2021/04/09 10:06:50;;;;;;;8.88;5.55;;;;;;;10.50;100.00;100828.72;5042983;28;20052;-64
2021/04/09 10:09:25;;;;;;;10.15;5.78;;;;;;;10.74;100.00;100836.94;5045510;28;20067;-65
2021/04/09 10:11:54;;;;;;;8.30;5.38;;;;;;;11.15;100.00;100834.31;5044705;28;20177;-64
2021/04/09 10:14:21;;;;;;;10.02;4.97;;;;;;;11.48;100.00;100823.63;5043806;28;20033;-64
2021/04/09 10:16:48;;;;;;;9.15;5.07;;;;;;;10.41;100.00;100826.19;5043095;28;20061;-65
2021/04/09 10:19:21;;;;;;;7.75;5.57;;;;;;;11.64;100.00;100823.59;5045679;28;20132;-66
2021/04/09 10:21:48;;;;;;;7.72;4.00;;;;;;;11.39;100.00;100824.66;5042768;28;20049;-65
2021/04/09 10:24:38;;;;;;;9.52;5.25;;;;;;;11.58;100.00;100826.97;5042419;28;20047;-65
2021/04/09 10:27:06;;;;;;;7.93;5.07;;;;;;;11.03;100.00;100821.28;5044130;28;20057;-65
2021/04/09 10:29:36;;;;;;;9.75;5.70;;;;;;;11.41;100.00;100830.63;5044733;28;20437;-64
2021/04/09 10:32:05;;;;;;;9.02;5.38;;;;;;;11.05;100.00;100828.31;5042635;28;20061;-64
2021/04/09 10:34:33;;;;;;;9.35;5.45;;;;;;;11.53;100.00;100829.31;5038810;28;20067;-65
2021/04/09 10:37:03;;;;;;;8.50;5.55;;;;;;;11.58;100.00;100821.63;5044148;28;20052;-63
2021/04/09 10:39:31;;;;;;;11.23;5.75;;;;;;;11.35;100.00;100827.66;5043780;28;20045;-63
2021/04/09 10:42:01;;;;;;;11.35;5.60;;;;;;;12.26;100.00;100822.09;5042519;28;20067;-63
2021/04/09 10:44:31;;;;;;;10.10;6.40;;;;;;;12.19;100.00;100829.16;5045938;28;20041;-63
2021/04/09 10:46:59;;;;;;;11.00;6.30;;;;;;;12.77;100.00;100818.97;5039527;28;20076;-64
2021/04/09 10:49:29;;;;;;;7.72;5.30;;;;;;;13.07;100.00;100814.59;5044387;28;20087;-63
2021/04/09 10:51:57;;;;;;;12.00;6.70;;;;;;;13.18;100.00;100817.84;5043153;28;20061;-64
2021/04/09 10:54:25;;;;;;;10.88;6.57;;;;;;;12.18;100.00;100809.59;5043259;28;20454;-64
2021/04/09 10:56:55;;;;;;;11.00;6.22;;;;;;;12.74;100.00;100804.09;5038896;28;20041;-64
2021/04/09 10:59:24;;;;;;;9.52;5.80;;;;;;;13.85;100.00;100802.81;5044230;28;20037;-64
2021/04/09 11:01:51;;;;;;;11.73;6.53;;;;;;;12.77;100.00;100802.06;5044489;28;20053;-64
2021/04/09 11:04:18;;;;;;;9.75;6.68;;;;;;;13.98;100.00;100797.63;5040610;28;20057;-63
2021/04/09 11:06:50;;;;;;;10.10;5.93;;;;;;;14.94;99.14;100792.16;5040253;28;20373;-64
2021/04/09 11:09:19;;;;;;;11.05;6.60;;;;;;;14.65;100.00;100790.41;5041878;28;20048;-64
2021/04/09 11:11:46;;;;;;;9.77;6.43;;;;;;;13.57;100.00;100792.72;5045147;28;20048;-64
2021/04/09 11:14:17;;;;;;;9.73;6.40;;;;;;;13.77;100.00;100782.28;5042788;28;20041;-64
2021/04/09 11:16:49;;;;;;;10.75;6.15;;;;;;;13.27;100.00;100776.56;5037651;28;20056;-64
2021/04/09 11:19:33;;;;;;;11.10;6.22;;;;;;;13.55;100.00;100776.81;5043749;28;20072;-63
2021/04/09 11:22:02;;;;;;;19.15;7.85;;;;;;;12.64;100.00;100770.50;5041447;28;20044;-63
2021/04/09 11:24:32;;;;;;;10.88;6.70;;;;;;;12.99;100.00;100770.94;5042534;28;20049;-63